Home > Products > Valid Products > MTR

000
SAUS43 KUNR 180758
MTR2WX
METAR K2WX 180756Z AUTO 19007KT 07/M01 A2999 RMK AO1 SLP158
T00721011 $





000
SAUS43 KUNR 180758
MTR2WX
METAR K2WX 180756Z AUTO 19007KT 07/M01 A2999 RMK AO1 SLP158
T00721011 $





000
SAUS43 KUNR 180757
MTRD07
METAR KD07 180756Z AUTO 25004KT 09/03 A3006 RMK AO1 SLP181 T00940028
$





000
SAUS43 KUNR 180757
MTRD07
METAR KD07 180756Z AUTO 25004KT 09/03 A3006 RMK AO1 SLP181 T00940028
$





000
SAUS43 KUNR 180657
MTRD07
METAR KD07 180656Z AUTO 21007KT 09/02 A3007 RMK AO1 SLP185 T00890022
401940011 $





000
SAUS43 KUNR 180657
MTR2WX
METAR K2WX 180656Z AUTO 17005KT 08/M02 A3001 RMK AO1 SLP163
T00781022 401891011 $





000
SAUS43 KUNR 180557
MTRD07
METAR KD07 180556Z AUTO 21009KT 09/02 A3008 RMK AO1 SLP188 T00940017
10183 20089 58003





000
SAUS43 KUNR 180557
MTR2WX
METAR K2WX 180556Z AUTO 18005KT 09/M02 A3001 RMK AO1 SLP166
T00941017 10178 20072 58006 $





000
SAUS43 KUNR 180557
MTR2WX
METAR K2WX 180556Z AUTO 18005KT 09/M02 A3001 RMK AO1 SLP166
T00941017 10178 20072 58006 $





000
SAUS43 KUNR 180557
MTRD07
METAR KD07 180556Z AUTO 21009KT 09/02 A3008 RMK AO1 SLP188 T00940017
10183 20089 58003





000
SAUS43 KUNR 180457
MTRD07
METAR KD07 180456Z AUTO 22011KT 10/01 A3008 RMK AO1 SLP189 T01000006





000
SAUS43 KUNR 180457
MTR2WX
METAR K2WX 180456Z AUTO 19003KT 11/M02 A3002 RMK AO1 SLP172
T01061022 $





000
SAUS43 KUNR 180358
MTR2WX
METAR K2WX 180356Z AUTO 13005KT 11/M02 A3003 RMK AO1 SLP181
T01061017 $





000
SAUS43 KUNR 180357
MTRD07
METAR KD07 180356Z AUTO 18011KT 12/M04 A3009 RMK AO1 SLP192
T01221044





000
SAUS43 KUNR 180258
MTR2WX
METAR K2WX 180256Z AUTO 11007KT 13/M02 A3003 RMK AO1 SLP181
T01331017 55002 $





000
SAUS43 KUNR 180257
MTRD07
METAR KD07 180256Z AUTO 12008KT 15/M06 A3009 RMK AO1 SLP190
T01501056 53000





000
SAUS43 KUNR 180157
MTR2WX
METAR K2WX 180156Z AUTO 12008KT 14/M01 A3003 RMK AO1 SLP173
T01391011 $





000
SAUS43 KUNR 180157
MTRD07
METAR KD07 180156Z AUTO 10006KT 16/M05 A3008 RMK AO1 SLP193
T01561050





000
SAUS43 KUNR 180157
MTRD07
METAR KD07 180156Z AUTO 10006KT 16/M05 A3008 RMK AO1 SLP193
T01561050





000
SAUS43 KUNR 180058
MTR2WX
METAR K2WX 180056Z AUTO 11007KT 16/00 A3003 RMK AO1 SLP178 T01560000
$





000
SAUS43 KUNR 180057
MTRD07
METAR KD07 180056Z AUTO 11004KT 17/M04 A3008 RMK AO1 SLP195
T01721044





000
SAUS43 KUNR 172358
MTR2WX
METAR K2WX 172356Z AUTO 06006KT 18/M02 A3004 RMK AO1 SLP175 6////
T01831022 10189 20100 $





000
SAUS43 KUNR 172358
MTR2WX
METAR K2WX 172356Z AUTO 06006KT 18/M02 A3004 RMK AO1 SLP175 6////
T01831022 10189 20100 $





000
SAUS43 KUNR 172357
MTRD07
METAR KD07 172356Z AUTO 10005KT 18/M06 A3009 RMK AO1 SLP197
T01831056 10194 20172 56009





000
SAUS43 KUNR 172357
MTRD07
METAR KD07 172356Z AUTO 10005KT 18/M06 A3009 RMK AO1 SLP197
T01831056 10194 20172 56009





000
SAUS43 KUNR 172258
MTR2WX
METAR K2WX 172256Z AUTO 08006KT 18/M03 A3004 RMK AO1 SLP176
T01831028 $





000
SAUS43 KUNR 172257
MTRD07
METAR KD07 172256Z AUTO 12007KT 19/M06 A3009 RMK AO1 SLP196
T01891056





000
SAUS43 KUNR 172157
MTRD07
METAR KD07 172156Z AUTO VRB06KT 19/M05 A3010 RMK AO1 SLP199
T01941050





000
SAUS43 KUNR 172157
MTRD07
METAR KD07 172156Z AUTO VRB06KT 19/M05 A3010 RMK AO1 SLP199
T01941050





000
SAUS43 KUNR 172157
MTR2WX
METAR K2WX 172156Z AUTO VRB04KT 18/M02 A3005 RMK AO1 SLP178
T01831022 $





000
SAUS43 KUNR 172057
MTRD07
METAR KD07 172056Z AUTO 04005KT 19/M06 A3012 RMK AO1 SLP204
T01891061 58021





000
SAUS43 KUNR 172057
MTRD07
METAR KD07 172056Z AUTO 04005KT 19/M06 A3012 RMK AO1 SLP204
T01891061 58021





000
SAUS43 KUNR 171957
MTRD07
METAR KD07 171956Z AUTO VRB03KT 18/M07 A3014 RMK AO1 SLP213
T01831067





000
SAUS43 KUNR 171957
MTRD07
METAR KD07 171956Z AUTO VRB03KT 18/M07 A3014 RMK AO1 SLP213
T01831067





000
SAUS43 KUNR 171858
MTRD07
METAR KD07 171856Z AUTO 00000KT 17/M08 A3016 RMK AO1 SLP219
T01721078





000
SAUS43 KUNR 171758
MTR2WX
METAR K2WX 171756Z AUTO VRB03KT 16/M04 A3013 RMK AO1 SLP206
T01611044 10167 20000





000
SAUS43 KUNR 171757
MTRD07
METAR KD07 171756Z AUTO VRB04KT 17/M08 A3018 RMK AO1 SLP227
T01721078 10178 20011 58010





000
SAUS43 KUNR 171658
MTR2WX
METAR K2WX 171656Z AUTO 34004KT 15/M04 A3015 RMK AO1 SLP209
T01501044





000
SAUS43 KUNR 171658
MTR2WX
METAR K2WX 171656Z AUTO 34004KT 15/M04 A3015 RMK AO1 SLP209
T01501044





000
SAUS43 KUNR 171657
MTRD07
METAR KD07 171656Z AUTO 06004KT 17/M06 A3019 RMK AO1 SLP228
T01671061





000
SAUS43 KUNR 171657
MTRD07
METAR KD07 171656Z AUTO 06004KT 17/M06 A3019 RMK AO1 SLP228
T01671061





000
SAUS43 KUNR 171558
MTR2WX
METAR K2WX 171556Z AUTO 04004KT 14/M04 A3016 RMK AO1 SLP214
T01391039 $





000
SAUS43 KUNR 171558
MTR2WX
METAR K2WX 171556Z AUTO 04004KT 14/M04 A3016 RMK AO1 SLP214
T01391039 $





000
SAUS43 KUNR 171557
MTRD07
METAR KD07 171556Z AUTO 00000KT 14/M03 A3020 RMK AO1 SLP234
T01441028





000
SAUS43 KUNR 171457
MTR2WX
METAR K2WX 171456Z AUTO 00000KT 10/01 A3016 RMK AO1 SLP218 T01000006
51004





000
SAUS43 KUNR 171457
MTRD07
METAR KD07 171456Z AUTO 00000KT 12/M03 A3021 RMK AO1 SLP240
T01221033 52003





000
SAUS43 KUNR 171457
MTRD07
METAR KD07 171456Z AUTO 00000KT 12/M03 A3021 RMK AO1 SLP240
T01221033 52003





000
SAUS43 KUNR 171457
MTR2WX
METAR K2WX 171456Z AUTO 00000KT 10/01 A3016 RMK AO1 SLP218 T01000006
51004





000
SAUS43 KUNR 171357
MTRD07
METAR KD07 171356Z AUTO 34003KT 08/M04 A3021 RMK AO1 SLP243
T00781039





000
SAUS43 KUNR 171357
MTR2WX
METAR K2WX 171356Z AUTO 00000KT 07/M03 A3016 RMK AO1 SLP218
T00721028





000
SAUS43 KUNR 171357
MTRD07
METAR KD07 171356Z AUTO 34003KT 08/M04 A3021 RMK AO1 SLP243
T00781039





000
SAUS43 KUNR 171257
MTRD07
METAR KD07 171256Z AUTO 31005KT 03/M04 A3020 RMK AO1 SLP241
T00281044





000
SAUS43 KUNR 171257
MTR2WX
METAR K2WX 171256Z AUTO 30005KT 01/M05 A3015 RMK AO1 SLP223
T00061050





000
SAUS43 KUNR 171257
MTRD07
METAR KD07 171256Z AUTO 31005KT 03/M04 A3020 RMK AO1 SLP241
T00281044





000
SAUS43 KUNR 171257
MTR2WX
METAR K2WX 171256Z AUTO 30005KT 01/M05 A3015 RMK AO1 SLP223
T00061050





000
SAUS43 KUNR 171157
MTR2WX
METAR K2WX 171156Z AUTO 22004KT 00/M04 A3015 RMK AO1 SLP222
T00001044 10072 21011 53002





000
SAUS43 KUNR 171157
MTRD07
METAR KD07 171156Z AUTO 32007KT 02/M05 A3020 RMK AO1 SLP239
T00171050 10072 20017 53002





000
SAUS43 KUNR 171157
MTR2WX
METAR K2WX 171156Z AUTO 22004KT 00/M04 A3015 RMK AO1 SLP222
T00001044 10072 21011 53002





000
SAUS43 KUNR 171157
MTRD07
METAR KD07 171156Z AUTO 32007KT 02/M05 A3020 RMK AO1 SLP239
T00171050 10072 20017 53002





000
SAUS43 KUNR 171058
MTRD07
METAR KD07 171056Z AUTO 34007KT 03/M04 A3019 RMK AO1 SLP233
T00281044





000
SAUS43 KUNR 171057
MTR2WX
METAR K2WX 171056Z AUTO 30005KT 04/M06 A3014 RMK AO1 SLP212
T00441061





000
SAUS43 KUNR 170957
MTRD07
METAR KD07 170956Z AUTO 33007KT 03/M04 A3019 RMK AO1 SLP234
T00331044





000
SAUS43 KUNR 170957
MTR2WX
METAR K2WX 170956Z AUTO 00000KT 04/M06 A3014 RMK AO1 SLP214
T00391056





000
SAUS43 KUNR 170857
MTR2WX
METAR K2WX 170856Z AUTO 26005KT 03/M04 A3014 RMK AO1 SLP215
T00281044 58006





000
SAUS43 KUNR 170857
MTRD07
METAR KD07 170856Z AUTO 31005KT 04/M04 A3020 RMK AO1 SLP235
T00441044 56005





000
SAUS43 KUNR 170857
MTRD07
METAR KD07 170856Z AUTO 31005KT 04/M04 A3020 RMK AO1 SLP235
T00441044 56005





000
SAUS43 KUNR 170857
MTR2WX
METAR K2WX 170856Z AUTO 26005KT 03/M04 A3014 RMK AO1 SLP215
T00281044 58006





000
SAUS43 KUNR 170758
MTR2WX
METAR K2WX 170756Z AUTO 23003KT 05/M05 A3015 RMK AO1 SLP216
T00501050





000
SAUS43 KUNR 170757
MTRD07
METAR KD07 170756Z AUTO 32005KT 04/M03 A3020 RMK AO1 SLP237
T00441033





000
SAUS43 KUNR 170658
MTR2WX
METAR K2WX 170656Z AUTO 27005KT 03/M04 A3016 RMK AO1 SLP225
T00331039 401560028





000
SAUS43 KUNR 170657
MTRD07
METAR KD07 170656Z AUTO 36006KT 06/M03 A3020 RMK AO1 SLP237
T00611033 401670056





000
SAUS43 KUNR 170558
MTR2WX
METAR K2WX 170556Z AUTO 30004KT 05/M06 A3016 RMK AO1 SLP224
T00501056 10150 20050 53003





000
SAUS43 KUNR 170558
MTR2WX
METAR K2WX 170556Z AUTO 30004KT 05/M06 A3016 RMK AO1 SLP224
T00501056 10150 20050 53003





000
SAUS43 KUNR 170557
MTRD07
METAR KD07 170556Z AUTO 31003KT 06/M01 A3021 RMK AO1 SLP241
T00611006 10161 20061 53010





000
SAUS43 KUNR 170557
MTRD07
METAR KD07 170556Z AUTO 31003KT 06/M01 A3021 RMK AO1 SLP241
T00611006 10161 20061 53010





000
SAUS43 KUNR 170458
MTR2WX
METAR K2WX 170456Z AUTO 34009KT 09/M08 A3015 RMK AO1 SLP217
T00941078





000
SAUS43 KUNR 170457
MTRD07
METAR KD07 170456Z AUTO 33006KT 08/00 A3020 RMK AO1 SLP239 T00830000





000
SAUS43 KUNR 170358
MTRD07
METAR KD07 170356Z AUTO 33003KT 08/00 A3019 RMK AO1 SLP234 T00830000





000
SAUS43 KUNR 170358
MTRD07
METAR KD07 170356Z AUTO 33003KT 08/00 A3019 RMK AO1 SLP234 T00830000





000
SAUS43 KUNR 170357
MTR2WX
METAR K2WX 170356Z AUTO 31006KT 09/M06 A3016 RMK AO1 SLP221
T00891061





000
SAUS43 KUNR 170258
MTR2WX
METAR K2WX 170256Z AUTO 33006KT 11/M05 A3015 RMK AO1 SLP218
T01061050 53009





000
SAUS43 KUNR 170257
MTRD07
METAR KD07 170256Z AUTO 00000KT 09/00 A3018 RMK AO1 SLP229 T00890000
53010





000
SAUS43 KUNR 170157
MTRD07
METAR KD07 170156Z AUTO 02008KT 09/00 A3015 RMK AO1 SLP222 T00940000





000
SAUS43 KUNR 170157
MTRD07
METAR KD07 170156Z AUTO 02008KT 09/00 A3015 RMK AO1 SLP222 T00940000





000
SAUS43 KUNR 170157
MTR2WX
METAR K2WX 170156Z AUTO 11004KT 12/M05 A3014 RMK AO1 SLP210
T01221050





000
SAUS43 KUNR 170058
MTRD07
METAR KD07 170056Z AUTO 04007KT 13/01 A3016 RMK AO1 SLP221 T01330006





000
SAUS43 KUNR 170058
MTR2WX
METAR K2WX 170056Z AUTO 07004KT 13/M05 A3013 RMK AO1 SLP208
T01331050





000
SAUS43 KUNR 170058
MTR2WX
METAR K2WX 170056Z AUTO 07004KT 13/M05 A3013 RMK AO1 SLP208
T01331050





000
SAUS43 KUNR 170058
MTRD07
METAR KD07 170056Z AUTO 04007KT 13/01 A3016 RMK AO1 SLP221 T01330006





000
SAUS43 KUNR 162358
MTR2WX
METAR K2WX 162356Z AUTO 04006KT 14/M06 A3012 RMK AO1 SLP205
T01441056 10156 20111 53003





000
SAUS43 KUNR 162358
MTRD07
METAR KD07 162356Z AUTO 04010KT 16/01 A3015 RMK AO1 SLP216 T01610006
10167 20122 53003





000
SAUS43 KUNR 162358
MTR2WX
METAR K2WX 162356Z AUTO 04006KT 14/M06 A3012 RMK AO1 SLP205
T01441056 10156 20111 53003





000
SAUS43 KUNR 162358
MTRD07
METAR KD07 162356Z AUTO 04010KT 16/01 A3015 RMK AO1 SLP216 T01610006
10167 20122 53003





000
SAUS43 KUNR 162258
MTR2WX
METAR K2WX 162256Z AUTO 04010KT 15/M04 A3011 RMK AO1 SLP199
T01501044





000
SAUS43 KUNR 162257
MTRD07
METAR KD07 162256Z AUTO 02014KT 16/00 A3013 RMK AO1 SLP208 T01560000





000
SAUS43 KUNR 162257
MTRD07
METAR KD07 162256Z AUTO 02014KT 16/00 A3013 RMK AO1 SLP208 T01560000





000
SAUS43 KUNR 162158
MTR2WX
METAR K2WX 162156Z AUTO 36010KT 14/M03 A3012 RMK AO1 SLP203
T01441028





000
SAUS43 KUNR 162158
MTR2WX
METAR K2WX 162156Z AUTO 36010KT 14/M03 A3012 RMK AO1 SLP203
T01441028





000
SAUS43 KUNR 162157
MTRD07
METAR KD07 162156Z AUTO 01014KT 15/00 A3013 RMK AO1 SLP207 T01500000





000
SAUS43 KUNR 162058
MTR2WX
METAR K2WX 162056Z AUTO 34012KT 14/M03 A3011 RMK AO1 SLP200
T01441028 58010





000
SAUS43 KUNR 162057
MTRD07
METAR KD07 162056Z AUTO 36015KT 15/00 A3014 RMK AO1 SLP211 T01500000
56006





000
SAUS43 KUNR 161958
MTR2WX
METAR K2WX 161956Z AUTO 34012G19KT 14/M02 A3013 RMK AO1 SLP205
T01441017





000
SAUS43 KUNR 161958
MTR2WX
METAR K2WX 161956Z AUTO 34012G19KT 14/M02 A3013 RMK AO1 SLP205
T01441017





000
SAUS43 KUNR 161957
MTRD07
METAR KD07 161956Z AUTO 35017KT 14/00 A3015 RMK AO1 SLP215 T01440000





000
SAUS43 KUNR 161957
MTRD07
METAR KD07 161956Z AUTO 35017KT 14/00 A3015 RMK AO1 SLP215 T01440000





000
SAUS43 KUNR 161858
MTRD07
METAR KD07 161856Z AUTO 33018G23KT 13/00 A3014 RMK AO1 SLP214
T01330000





000
SAUS43 KUNR 161858
MTRD07
METAR KD07 161856Z AUTO 33018G23KT 13/00 A3014 RMK AO1 SLP214
T01330000





000
SAUS43 KUNR 161857
MTR2WX
METAR K2WX 161856Z AUTO 35011KT 12/M02 A3014 RMK AO1 SLP210
T01221017





000
SAUS43 KUNR 161857
MTR2WX
METAR K2WX 161856Z AUTO 35011KT 12/M02 A3014 RMK AO1 SLP210
T01221017





000
SAUS43 KUNR 161757
MTR2WX
METAR K2WX 161756Z AUTO 35011G21KT 11/M01 A3015 RMK AO1 SLP215
T01111011 10111 20061 51015





000
SAUS43 KUNR 161757
MTRD07
METAR KD07 161756Z AUTO 35019G25KT 13/00 A3016 RMK AO1 SLP220
T01280000 10128 20056 50013





000
SAUS43 KUNR 161657
MTRD07
METAR KD07 161656Z AUTO 33015KT 09/00 A3016 RMK AO1 SLP225 T00940000





000
SAUS43 KUNR 161657
MTR2WX
METAR K2WX 161656Z AUTO 35016G23KT 10/M01 A3013 RMK AO1 SLP209
T01001011





000
SAUS43 KUNR 161657
MTRD07
METAR KD07 161656Z AUTO 33015KT 09/00 A3016 RMK AO1 SLP225 T00940000





000
SAUS43 KUNR 161657
MTR2WX
METAR K2WX 161656Z AUTO 35016G23KT 10/M01 A3013 RMK AO1 SLP209
T01001011





000
SAUS43 KUNR 161558
MTRD07
METAR KD07 161556Z AUTO 33018KT 09/M01 A3013 RMK AO1 SLP214
T00941006





000
SAUS43 KUNR 161557
MTR2WX
METAR K2WX 161556Z AUTO 33018KT 09/M01 A3012 RMK AO1 SLP206
T00891006





000
SAUS43 KUNR 161457
MTRD07
METAR KD07 161456Z AUTO 34018KT 09/00 A3011 RMK AO1 SLP206 T00940000
51025





000
SAUS43 KUNR 161457
MTR2WX
METAR K2WX 161456Z AUTO 34018KT 08/M01 A3010 RMK AO1 SLP203
T00781011 51016





000
SAUS43 KUNR 161357
MTR2WX
METAR K2WX 161356Z AUTO 33016KT 07/M01 A3010 RMK AO1 SLP204
T00721011





000
SAUS43 KUNR 161357
MTRD07
METAR KD07 161356Z AUTO 33017KT 08/01 A3010 RMK AO1 SLP199 T00780011





000
SAUS43 KUNR 161257
MTRD07
METAR KD07 161256Z AUTO 34015KT 07/02 A3007 RMK AO1 SLP189 T00670017





000
SAUS43 KUNR 161257
MTR2WX
METAR K2WX 161256Z AUTO 33016KT 07/M01 A3008 RMK AO1 SLP195
T00671011 $





000
SAUS43 KUNR 161257
MTRD07
METAR KD07 161256Z AUTO 34015KT 07/02 A3007 RMK AO1 SLP189 T00670017





000
SAUS43 KUNR 161257
MTR2WX
METAR K2WX 161256Z AUTO 33016KT 07/M01 A3008 RMK AO1 SLP195
T00671011 $





000
SAUS43 KUNR 161158
MTR2WX
METAR K2WX 161156Z AUTO 32014KT 07/M01 A3005 RMK AO1 SLP181 7////
T00671006 10089 20061 53014 $





000
SAUS43 KUNR 161158
MTR2WX
METAR K2WX 161156Z AUTO 32014KT 07/M01 A3005 RMK AO1 SLP181 7////
T00671006 10089 20061 53014 $





000
SAUS43 KUNR 161157
MTRD07
METAR KD07 161156Z AUTO 34014KT 06/02 A3003 RMK AO1 SLP176 T00610017
10094 20061 51020





000
SAUS43 KUNR 161157
MTRD07
METAR KD07 161156Z AUTO 34014KT 06/02 A3003 RMK AO1 SLP176 T00610017
10094 20061 51020





000
SAUS43 KUNR 161057
MTRD07
METAR KD07 161056Z AUTO 33014KT 07/02 A3002 RMK AO1 SLP171 T00720022





000
SAUS43 KUNR 161057
MTR2WX
METAR K2WX 161056Z AUTO 33012KT 07/00 A3002 RMK AO1 SLP171 T00670000
$





000
SAUS43 KUNR 161057
MTR2WX
METAR K2WX 161056Z AUTO 33012KT 07/00 A3002 RMK AO1 SLP171 T00670000
$





000
SAUS43 KUNR 161057
MTRD07
METAR KD07 161056Z AUTO 33014KT 07/02 A3002 RMK AO1 SLP171 T00720022





000
SAUS43 KUNR 160957
MTR2WX
METAR K2WX 160956Z AUTO 32013KT 06/01 A3002 RMK AO1 SLP173 T00610006
$





000
SAUS43 KUNR 160957
MTRD07
METAR KD07 160956Z AUTO 35015KT 09/01 A2999 RMK AO1 SLP157 T00890006





000
SAUS43 KUNR 160957
MTRD07
METAR KD07 160956Z AUTO 35015KT 09/01 A2999 RMK AO1 SLP157 T00890006





000
SAUS43 KUNR 160857
MTR2WX
METAR K2WX 160856Z AUTO 33014KT 08/00 A3000 RMK AO1 SLP165 T00780000
50017 $





000
SAUS43 KUNR 160857
MTRD07
METAR KD07 160856Z AUTO 35011KT 09/02 A2997 RMK AO1 SLP149 T00940022
56004





000
SAUS43 KUNR 160857
MTR2WX
METAR K2WX 160856Z AUTO 33014KT 08/00 A3000 RMK AO1 SLP165 T00780000
50017 $





000
SAUS43 KUNR 160857
MTRD07
METAR KD07 160856Z AUTO 35011KT 09/02 A2997 RMK AO1 SLP149 T00940022
56004





000
SAUS43 KUNR 160758
MTR2WX
METAR K2WX 160756Z AUTO 35010KT 08/00 A3001 RMK AO1 SLP164 T00830000
$





000
SAUS43 KUNR 160757
MTRD07
METAR KD07 160756Z AUTO 30009KT 09/04 A2997 RMK AO1 SLP151 T00890039





000
SAUS43 KUNR 160658
MTR2WX
METAR K2WX 160656Z AUTO 36015KT 08/01 A2997 RMK AO1 PK WND
34026/0601 SLP153 T00830006 401500033 $





000
SAUS43 KUNR 160657
MTRD07
METAR KD07 160656Z AUTO 27006KT 08/04 A2998 RMK AO1 SLP154 T00830039
401940067





000
SAUS43 KUNR 160558
MTR2WX
METAR K2WX 160556Z AUTO 34019KT 08/01 A2994 RMK AO1 SLP144 60003
T00830011 10122 20072 51010 $





000
SAUS43 KUNR 160558
MTR2WX
METAR K2WX 160556Z AUTO 34019KT 08/01 A2994 RMK AO1 SLP144 60003
T00830011 10122 20072 51010 $





000
SAUS43 KUNR 160557
MTRD07
METAR KD07 160556Z AUTO 29007KT 08/03 A2998 RMK AO1 SLP158 T00780033
10167 20067 51016





000
SAUS43 KUNR 160557
MTRD07
METAR KD07 160556Z AUTO 29007KT 08/03 A2998 RMK AO1 SLP158 T00780033
10167 20067 51016





000
SAUS43 KUNR 160458
MTR2WX
METAR K2WX 160456Z AUTO 34016KT 10/03 A2994 RMK AO1 SLP141 T01000028
$





000
SAUS43 KUNR 160458
MTRD07
METAR KD07 160456Z AUTO 30008KT 07/03 A2997 RMK AO1 SLP156 T00670033





000
SAUS43 KUNR 160358
MTR2WX
METAR K2WX 160356Z AUTO 34012G19KT 10/04 A2992 RMK AO1 SLP136
T01000044 $





000
SAUS43 KUNR 160358
MTRD07
METAR KD07 160356Z AUTO 29011KT 09/04 A2996 RMK AO1 SLP152 T00890039





000
SAUS43 KUNR 160258
MTR2WX
METAR K2WX 160256Z AUTO 28007KT 08/06 A2991 RMK AO1 SLP138 60003
T00780056 51016 $





000
SAUS43 KUNR 160258
MTRD07
METAR KD07 160256Z AUTO 32009KT 11/03 A2993 RMK AO1 SLP141 T01110028
51025





000
SAUS43 KUNR 160158
MTR2WX
METAR K2WX 160156Z AUTO 28007KT 07/05 A2989 RMK AO1 SLP133 P0002
T00720050 $





000
SAUS43 KUNR 160158
MTR2WX
METAR K2WX 160156Z AUTO 28007KT 07/05 A2989 RMK AO1 SLP133 P0002
T00720050 $





000
SAUS43 KUNR 160157
MTRD07
METAR KD07 160156Z AUTO 31016KT 13/01 A2992 RMK AO1 SLP135 T01280011





000
SAUS43 KUNR 160058
MTRD07
METAR KD07 160056Z AUTO 32013KT 14/02 A2987 RMK AO1 SLP122 T01440017





000
SAUS43 KUNR 160057
MTR2WX
METAR K2WX 160056Z AUTO 25013KT 09/05 A2989 RMK AO1 SLP132 P0001
T00890050 $





000
SAUS43 KUNR 152357
MTR2WX
METAR K2WX 152356Z AUTO 28008KT 12/03 A2986 RMK AO1 SLP118 6////
T01220028 10128 20111 $





000
SAUS43 KUNR 152357
MTRD07
METAR KD07 152356Z AUTO 33013KT 17/01 A2986 RMK AO1 SLP113 T01670011
10194 20156 53005





000
SAUS43 KUNR 152357
MTR2WX
METAR K2WX 152356Z AUTO 28008KT 12/03 A2986 RMK AO1 SLP118 6////
T01220028 10128 20111 $





000
SAUS43 KUNR 152357
MTRD07
METAR KD07 152356Z AUTO 33013KT 17/01 A2986 RMK AO1 SLP113 T01670011
10194 20156 53005





000
SAUS43 KUNR 152257
MTR2WX
METAR K2WX 152256Z AUTO 30009KT 12/02 A2985 RMK AO1 SLP113 T01220017
$





000
SAUS43 KUNR 152257
MTRD07
METAR KD07 152256Z AUTO 32011KT 17/01 A2984 RMK AO1 SLP106 T01720011





000
SAUS43 KUNR 152257
MTR2WX
METAR K2WX 152256Z AUTO 30009KT 12/02 A2985 RMK AO1 SLP113 T01220017
$





000
SAUS43 KUNR 152257
MTRD07
METAR KD07 152256Z AUTO 32011KT 17/01 A2984 RMK AO1 SLP106 T01720011





000
SAUS43 KUNR 152157
MTRD07
METAR KD07 152156Z AUTO 32014G19KT 19/01 A2983 RMK AO1 SLP101
T01890011





000
SAUS43 KUNR 152057
MTRD07
METAR KD07 152056Z AUTO 30007KT 18/01 A2984 RMK AO1 SLP103 T01780011
56008





000
SAUS43 KUNR 152057
MTR2WX
METAR K2WX 152056Z AUTO 30010G17KT 11/02 A2985 RMK AO1 SLP104
T01110017 50009





000
SAUS43 KUNR 151957
MTRD07
METAR KD07 151956Z AUTO 22005KT 18/01 A2984 RMK AO1 SLP104 T01780006





000
SAUS43 KUNR 151957
MTR2WX
METAR K2WX 151956Z AUTO 28012KT 12/02 A2985 RMK AO1 SLP105 T01170017





000
SAUS43 KUNR 151858
MTR2WX
METAR K2WX 151856Z AUTO 27013KT 12/02 A2984 RMK AO1 SLP100 T01170017





000
SAUS43 KUNR 151858
MTR2WX
METAR K2WX 151856Z AUTO 27013KT 12/02 A2984 RMK AO1 SLP100 T01170017





000
SAUS43 KUNR 151857
MTRD07
METAR KD07 151856Z AUTO 21008KT 17/01 A2986 RMK AO1 SLP111 T01670006





000
SAUS43 KUNR 151857
MTRD07
METAR KD07 151856Z AUTO 21008KT 17/01 A2986 RMK AO1 SLP111 T01670006





000
SAUS43 KUNR 151758
MTR2WX
METAR K2WX 151756Z AUTO 28011KT 11/02 A2982 RMK AO1 SLP092 T01110017
10128 20033 53023





000
SAUS43 KUNR 151758
MTR2WX
METAR K2WX 151756Z AUTO 28011KT 11/02 A2982 RMK AO1 SLP092 T01110017
10128 20033 53023





000
SAUS43 KUNR 151757
MTRD07
METAR KD07 151756Z AUTO 25012KT 16/01 A2987 RMK AO1 SLP112 T01610006
10167 20067 51017





000
SAUS43 KUNR 151757
MTRD07
METAR KD07 151756Z AUTO 25012KT 16/01 A2987 RMK AO1 SLP112 T01610006
10167 20067 51017





000
SAUS43 KUNR 151658
MTRD07
METAR KD07 151656Z AUTO 24009KT 14/01 A2986 RMK AO1 SLP108 T01440006





000
SAUS43 KUNR 151657
MTR2WX
METAR K2WX 151656Z AUTO 30011G20KT 11/02 A2979 RMK AO1 SLP081
T01110017





000
SAUS43 KUNR 151557
MTR2WX
METAR K2WX 151556Z AUTO 30018KT 09/01 A2976 RMK AO1 PK WND
29027/1504 SLP073 T00940011





000
SAUS43 KUNR 151557
MTRD07
METAR KD07 151556Z AUTO 25012KT 13/01 A2983 RMK AO1 SLP099 T01330006





000
SAUS43 KUNR 151502 COR
MTRD07
METAR KD07 151456Z AUTO 22015KT 12/01 A2981 RMK AO1 PK WND
20027/1425 SLP093 T01170011 53028





000
SAUS43 KUNR 151459 COR
MTRD07
METAR KD07 151456Z AUTO 22015KT 12/01 A2981 RMK AO1 PK WND
20027/1425 SLP093 T01170011 53028





000
SAUS43 KUNR 151457
MTR2WX
METAR K2WX 151456Z AUTO 30021G28KT 08/01 A2974 RMK AO1 PK WND
31031/1426 SLP067 T00780011 51026





000
SAUS43 KUNR 151457
MTRD07
METAR KD07 151456Z AUTO 22015KT 12/01 A2981 RMK AO1 PK WND
20027/1425 SLP093 T01170011 53028





000
SAUS43 KUNR 151357
MTR2WX
METAR K2WX 151356Z AUTO 30022G26KT 06/01 A2972 RMK AO1 PK WND
29027/1345 SLP058 T00610006





000
SAUS43 KUNR 151357
MTR2WX
METAR K2WX 151356Z AUTO 30022G26KT 06/01 A2972 RMK AO1 PK WND
29027/1345 SLP058 T00610006





000
SAUS43 KUNR 151357
MTRD07
METAR KD07 151356Z AUTO 16023G28KT 11/M03 A2977 RMK AO1 PK WND
17028/1355 SLP077 T01061033





000
SAUS43 KUNR 151357
MTRD07
METAR KD07 151356Z AUTO 16023G28KT 11/M03 A2977 RMK AO1 PK WND
17028/1355 SLP077 T01061033





000
SAUS43 KUNR 151257
MTRD07
METAR KD07 151256Z AUTO 14019KT 08/M04 A2975 RMK AO1 PK WND
15026/1208 SLP072 T00781039





000
SAUS43 KUNR 151257
MTR2WX
METAR K2WX 151256Z AUTO 29018KT 04/00 A2970 RMK AO1 SLP051 T00440000





000
SAUS43 KUNR 151257
MTR2WX
METAR K2WX 151256Z AUTO 29018KT 04/00 A2970 RMK AO1 SLP051 T00440000





000
SAUS43 KUNR 151257
MTRD07
METAR KD07 151256Z AUTO 14019KT 08/M04 A2975 RMK AO1 PK WND
15026/1208 SLP072 T00781039





000
SAUS43 KUNR 151157
MTR2WX
METAR K2WX 151156Z AUTO 31017KT 05/01 A2966 RMK AO1 SLP033 T00500006
10161 20050 53032





000
SAUS43 KUNR 151157
MTR2WX
METAR K2WX 151156Z AUTO 31017KT 05/01 A2966 RMK AO1 SLP033 T00500006
10161 20050 53032





000
SAUS43 KUNR 151157
MTRD07
METAR KD07 151156Z AUTO 15019KT 07/M05 A2972 RMK AO1 SLP060
T00721050 10133 20072 53013





000
SAUS43 KUNR 151157
MTRD07
METAR KD07 151156Z AUTO 15019KT 07/M05 A2972 RMK AO1 SLP060
T00721050 10133 20072 53013





000
SAUS43 KUNR 151058
MTR2WX
METAR K2WX 151056Z AUTO 31017KT 07/01 A2963 RMK AO1 WSHFT 0944
SLP017 T00720011





000
SAUS43 KUNR 151057
MTRD07
METAR KD07 151056Z AUTO 14018KT 08/M05 A2969 RMK AO1 SLP046
T00831050





000
SAUS43 KUNR 151006
MTR2WX
SPECI K2WX 151004Z AUTO 33013KT 11/01 A2960 RMK AO1 WSHFT 0944
T01060011





000
SAUS43 KUNR 150958
MTR2WX
METAR K2WX 150956Z AUTO 34016G24KT 12/01 A2958 RMK AO1 SLP999
T01170006





000
SAUS43 KUNR 150957
MTRD07
METAR KD07 150956Z AUTO 14014KT 09/M05 A2969 RMK AO1 PK WND
15027/0858 SLP043 T00891050





    US Dept of Commerce
    National Oceanic and Atmospheric Administration
    National Weather Service
    1325 East West Highway
    Silver Spring, MD 20910
    Page Author: NWS Internet Services Team
Disclaimer
Information Quality
Credits
Glossary
Privacy Policy
Freedom of Information Act (FOIA)
About Us
Career Opportunities